Time;durP1;ratioP1;P1;durP2;ratioP2;P2;SDS_P1;SDS_P2;PMS_P1;PMS_P2;Temp;Humidity;BMP_temperature;BMP_pressure;BME280_temperature;BME280_humidity;BME280_pressure;Samples;Min_cycle;Max_cycle;Signal;HPM_P1;HPM_P2
2022/08/20 00:00:38;;;;;;;7.68;4.30;;;19.30;84.50;;;;;;5074937;28;20048;-74
2022/08/20 00:03:07;;;;;;;8.70;4.00;;;19.30;84.40;;;;;;5075266;28;20398;-74
2022/08/20 00:05:36;;;;;;;11.43;5.13;;;19.30;84.50;;;;;;5075171;28;20050;-76
2022/08/20 00:08:03;;;;;;;7.10;4.03;;;19.30;84.40;;;;;;5075049;28;20044;-74
2022/08/20 00:10:30;;;;;;;7.32;3.95;;;19.30;84.30;;;;;;5075544;28;20380;-73
2022/08/20 00:12:56;;;;;;;10.73;4.72;;;19.30;84.30;;;;;;5075198;28;20040;-74
2022/08/20 00:15:27;;;;;;;6.80;4.30;;;19.30;84.20;;;;;;5075208;28;20119;-74
2022/08/20 00:17:55;;;;;;;11.57;5.10;;;19.30;84.20;;;;;;5075218;28;20121;-74
2022/08/20 00:20:25;;;;;;;7.35;4.00;;;19.20;84.20;;;;;;5074659;28;20079;-74
2022/08/20 00:22:51;;;;;;;11.95;4.50;;;19.20;84.20;;;;;;5075118;28;20036;-74
2022/08/20 00:25:17;;;;;;;9.45;5.28;;;19.20;84.30;;;;;;5074918;28;20477;-74
2022/08/20 00:27:43;;;;;;;10.82;5.50;;;19.20;84.30;;;;;;5058088;28;20540;-74
2022/08/20 00:30:11;;;;;;;8.30;5.80;;;19.20;84.30;;;;;;5057244;28;20099;-76
2022/08/20 00:32:50;;;;;;;8.13;5.10;;;19.10;84.40;;;;;;5073620;28;20484;-74
2022/08/20 00:35:18;;;;;;;8.35;5.50;;;19.10;84.60;;;;;;5073654;28;20079;-74
2022/08/20 00:37:44;;;;;;;8.23;5.47;;;19.10;84.50;;;;;;5073427;28;20490;-74
2022/08/20 00:40:13;;;;;;;8.60;5.38;;;19.00;84.40;;;;;;5073274;28;20177;-76
2022/08/20 00:42:51;;;;;;;12.73;5.47;;;19.10;84.50;;;;;;5073006;28;20049;-75
2022/08/20 00:45:18;;;;;;;9.23;4.45;;;19.10;84.30;;;;;;5073634;28;20581;-73
2022/08/20 00:47:44;;;;;;;9.85;5.20;;;19.00;84.30;;;;;;5056623;28;20523;-74
2022/08/20 00:50:14;;;;;;;8.98;4.65;;;19.00;84.00;;;;;;5073477;28;20040;-74
2022/08/20 00:52:41;;;;;;;11.77;4.90;;;19.00;83.80;;;;;;5073546;28;20420;-74
2022/08/20 00:55:09;;;;;;;12.90;5.28;;;19.00;83.70;;;;;;5073181;28;20049;-74
2022/08/20 00:57:42;;;;;;;13.13;5.45;;;18.90;83.70;;;;;;5073056;28;20123;-75
2022/08/20 01:00:15;;;;;;;14.35;5.50;;;18.90;83.70;;;;;;5073172;28;20040;-73
2022/08/20 01:02:41;;;;;;;8.07;4.43;;;18.90;83.80;;;;;;5056802;28;20072;-74
2022/08/20 01:05:08;;;;;;;8.13;5.10;;;18.90;83.70;;;;;;5056582;28;20389;-73
2022/08/20 01:07:36;;;;;;;10.40;4.70;;;18.90;83.50;;;;;;5073107;28;20076;-74
2022/08/20 01:10:10;;;;;;;7.32;4.55;;;18.80;83.40;;;;;;5072976;28;20496;-76
2022/08/20 01:12:39;;;;;;;7.97;5.03;;;18.90;83.50;;;;;;5056490;28;20044;-75
2022/08/20 01:15:09;;;;;;;10.85;5.47;;;18.90;83.50;;;;;;5072774;28;20106;-75
2022/08/20 01:17:37;;;;;;;12.20;6.90;;;18.80;83.40;;;;;;5072892;28;20388;-75
2022/08/20 01:20:14;;;;;;;10.60;7.30;;;18.80;84.00;;;;;;5073000;28;20047;-75
2022/08/20 01:25:49;;;;;;;12.55;6.15;;;18.70;84.00;;;;;;5072895;28;20055;-74
2022/08/20 01:31:03;;;;;;;16.65;6.28;;;18.70;84.10;;;;;;5027182;27;20885;-74
2022/08/20 01:33:30;;;;;;;9.27;5.07;;;18.60;83.90;;;;;;5026206;28;20490;-75
2022/08/20 01:35:57;;;;;;;13.00;5.75;;;18.60;83.80;;;;;;5026163;28;20419;-74
2022/08/20 01:38:22;;;;;;;10.15;5.38;;;18.60;83.60;;;;;;5026119;28;20042;-73
2022/08/20 01:41:07;;;;;;;9.70;5.28;;;18.60;83.40;;;;;;5009851;28;20041;-74
2022/08/20 01:43:33;;;;;;;12.80;6.07;;;18.60;83.30;;;;;;5025940;28;20129;-76
2022/08/20 01:46:00;;;;;;;9.82;5.57;;;18.60;83.50;;;;;;5025856;28;20580;-75
2022/08/20 01:48:26;;;;;;;12.63;6.38;;;18.60;83.50;;;;;;5025907;28;20088;-75
2022/08/20 01:51:03;;;;;;;8.73;5.93;;;18.50;83.50;;;;;;5025692;28;20504;-75
2022/08/20 01:53:42;;;;;;;10.90;5.32;;;18.50;83.60;;;;;;5026057;28;20370;-74
2022/08/20 01:56:12;;;;;;;10.63;5.88;;;18.50;83.50;;;;;;5025775;28;20040;-73
2022/08/20 01:58:42;;;;;;;12.20;4.85;;;18.50;83.40;;;;;;5025975;28;20120;-74
2022/08/20 02:01:22;;;;;;;9.90;4.18;;;18.50;83.30;;;;;;5025545;28;20033;-74
2022/08/20 02:03:48;;;;;;;10.50;4.32;;;18.50;83.00;;;;;;5025705;28;20113;-74
2022/08/20 02:06:14;;;;;;;12.63;3.97;;;18.50;82.70;;;;;;5025788;28;20046;-75
2022/08/20 02:08:41;;;;;;;7.20;3.20;;;18.50;82.10;;;;;;5025470;28;20486;-75
2022/08/20 02:11:07;;;;;;;11.27;3.17;;;18.50;81.50;;;;;;5025701;28;20195;-74
2022/08/20 02:13:33;;;;;;;7.20;2.40;;;18.50;81.00;;;;;;5009012;28;20124;-74
2022/08/20 02:15:58;;;;;;;15.55;2.65;;;18.50;80.40;;;;;;5025338;28;20128;-74
2022/08/20 02:18:24;;;;;;;6.85;2.60;;;18.50;79.90;;;;;;5025526;28;20053;-74
2022/08/20 02:20:51;;;;;;;6.70;2.63;;;18.50;79.70;;;;;;5008891;28;20194;-73
2022/08/20 02:23:17;;;;;;;9.57;2.95;;;18.50;79.30;;;;;;5008778;28;20042;-74
2022/08/20 02:25:46;;;;;;;7.10;2.45;;;18.50;79.00;;;;;;5009149;28;20046;-75
2022/08/20 02:28:14;;;;;;;8.35;2.60;;;18.50;79.00;;;;;;5025378;28;20064;-73
2022/08/20 02:30:45;;;;;;;11.73;2.72;;;18.50;78.80;;;;;;5024887;28;20054;-75
2022/08/20 02:33:13;;;;;;;9.00;2.42;;;18.50;78.70;;;;;;5025495;28;20054;-75
2022/08/20 02:35:41;;;;;;;8.23;2.40;;;18.40;78.50;;;;;;5025252;28;20171;-75
2022/08/20 02:38:08;;;;;;;8.02;2.42;;;18.50;78.50;;;;;;5025602;28;20042;-74
2022/08/20 02:40:34;;;;;;;6.78;2.65;;;18.40;78.20;;;;;;5006016;28;20398;-76
2022/08/20 02:43:01;;;;;;;7.82;2.00;;;18.40;77.80;;;;;;5011810;28;20046;-75
2022/08/20 02:45:28;;;;;;;7.35;2.17;;;18.40;77.80;;;;;;5011766;28;20509;-73
2022/08/20 02:47:55;;;;;;;9.70;2.20;;;18.40;77.70;;;;;;4995567;28;20046;-74
2022/08/20 02:50:25;;;;;;;8.55;2.30;;;18.40;77.70;;;;;;5011632;28;20086;-74
2022/08/20 02:52:51;;;;;;;8.38;2.20;;;18.30;77.60;;;;;;5011757;28;20056;-75
2022/08/20 02:55:16;;;;;;;7.35;2.38;;;18.30;77.50;;;;;;5011593;28;20484;-73
2022/08/20 02:57:43;;;;;;;7.97;2.22;;;18.30;77.50;;;;;;5011619;28;20047;-74
2022/08/20 03:00:17;;;;;;;8.40;2.35;;;18.30;77.30;;;;;;5011577;28;20129;-73
2022/08/20 03:02:43;;;;;;;;;;;18.20;77.10;;;;;;5012310;28;20095;-74
2022/08/20 03:05:09;;;;;;;8.05;2.30;;;18.20;76.90;;;;;;5011750;28;19921;-74
2022/08/20 03:07:46;;;;;;;7.63;2.22;;;18.20;77.40;;;;;;4995286;28;20069;-75
2022/08/20 03:10:13;;;;;;;6.47;2.45;;;18.10;77.30;;;;;;5011372;28;20137;-76
2022/08/20 03:12:39;;;;;;;9.20;2.60;;;18.20;77.50;;;;;;5011434;28;20057;-75
2022/08/20 03:15:08;;;;;;;6.38;2.15;;;18.10;77.40;;;;;;5011274;28;20046;-74
2022/08/20 03:17:35;;;;;;;7.85;2.83;;;18.10;77.20;;;;;;5011249;28;20046;-74
2022/08/20 03:20:03;;;;;;;6.63;2.00;;;18.00;77.20;;;;;;4995290;28;20413;-74
2022/08/20 03:22:28;;;;;;;7.57;2.00;;;18.00;77.20;;;;;;5011095;28;20045;-73
2022/08/20 03:24:54;;;;;;;8.48;2.15;;;18.00;77.10;;;;;;4995281;28;20136;-75
2022/08/20 03:27:20;;;;;;;9.10;2.17;;;18.00;77.30;;;;;;5011286;28;20397;-75
2022/08/20 03:29:46;;;;;;;8.57;2.20;;;18.00;77.40;;;;;;5010948;28;20062;-73
2022/08/20 03:32:11;;;;;;;8.07;2.35;;;17.90;77.50;;;;;;4994894;28;20054;-74
2022/08/20 03:34:37;;;;;;;8.38;2.03;;;17.80;77.70;;;;;;4995169;28;20073;-73
2022/08/20 03:37:03;;;;;;;8.20;1.92;;;17.70;77.90;;;;;;5011100;28;20406;-75
2022/08/20 03:39:28;;;;;;;9.48;2.35;;;17.70;78.10;;;;;;5010924;28;20045;-74
2022/08/20 03:41:54;;;;;;;7.07;2.25;;;17.70;78.20;;;;;;5011091;28;20052;-75
2022/08/20 03:44:21;;;;;;;6.22;2.67;;;17.60;78.40;;;;;;5011055;28;20057;-75
2022/08/20 03:46:47;;;;;;;5.43;1.92;;;17.50;78.50;;;;;;5011065;28;20076;-74
2022/08/20 03:49:13;;;;;;;10.27;2.45;;;17.50;78.70;;;;;;5010883;28;20046;-73
2022/08/20 03:51:39;;;;;;;9.02;2.72;;;17.50;78.90;;;;;;4978689;28;20042;-74
2022/08/20 03:54:05;;;;;;;7.22;2.63;;;17.40;79.00;;;;;;5010080;28;20546;-74
2022/08/20 03:56:30;;;;;;;8.57;2.90;;;17.30;79.30;;;;;;5010825;28;20397;-75
2022/08/20 03:58:56;;;;;;;8.57;2.28;;;17.20;79.40;;;;;;5011843;28;20378;-74
2022/08/20 04:01:22;;;;;;;6.72;1.95;;;17.20;79.60;;;;;;5010520;28;20038;-75
2022/08/20 04:03:47;;;;;;;6.28;2.28;;;17.10;79.70;;;;;;4994645;28;20049;-75
2022/08/20 04:06:13;;;;;;;10.68;2.35;;;17.10;79.90;;;;;;5010477;28;20063;-75
2022/08/20 04:08:40;;;;;;;7.75;2.33;;;17.00;80.00;;;;;;5010553;28;20449;-74
2022/08/20 04:11:06;;;;;;;10.02;2.65;;;17.00;80.00;;;;;;5010525;28;20094;-74
2022/08/20 04:13:32;;;;;;;9.25;3.00;;;16.90;80.20;;;;;;5010714;28;20129;-75
2022/08/20 04:16:02;;;;;;;6.38;3.05;;;16.90;80.30;;;;;;5010694;28;20534;-74
2022/08/20 04:18:28;;;;;;;12.07;3.63;;;16.90;80.60;;;;;;5010513;28;20038;-74
2022/08/20 04:20:54;;;;;;;9.13;2.60;;;16.80;80.70;;;;;;5010562;28;20042;-74
2022/08/20 04:23:21;;;;;;;10.90;3.10;;;16.70;80.80;;;;;;5010585;28;20045;-73
2022/08/20 04:25:47;;;;;;;8.60;3.13;;;16.70;81.00;;;;;;4994212;28;20432;-74
2022/08/20 04:28:24;;;;;;;7.78;3.40;;;16.70;80.90;;;;;;4993934;28;20045;-75
2022/08/20 04:30:51;;;;;;;7.60;3.08;;;16.70;81.10;;;;;;5009549;28;20068;-75
2022/08/20 04:33:17;;;;;;;8.68;3.30;;;16.60;81.30;;;;;;5009805;28;20046;-75
2022/08/20 04:35:44;;;;;;;10.48;3.47;;;16.50;81.10;;;;;;5010351;28;20416;-74
2022/08/20 04:38:14;;;;;;;7.78;3.80;;;16.50;81.40;;;;;;4994130;28;20042;-74
2022/08/20 04:40:59;;;;;;;10.93;3.90;;;16.50;81.40;;;;;;5010249;28;20092;-73
2022/08/20 04:43:28;;;;;;;8.00;3.58;;;16.40;81.90;;;;;;5010556;28;20402;-74
2022/08/20 04:45:56;;;;;;;10.05;3.75;;;16.40;81.90;;;;;;5010377;28;20052;-75
2022/08/20 04:48:24;;;;;;;7.50;3.55;;;16.40;82.00;;;;;;5010237;28;20042;-75
2022/08/20 04:50:52;;;;;;;7.90;3.85;;;16.30;82.10;;;;;;4993610;28;20046;-74
2022/08/20 04:53:21;;;;;;;9.02;4.13;;;16.30;82.10;;;;;;5010134;28;20391;-75
2022/08/20 04:55:47;;;;;;;7.38;3.60;;;16.30;82.20;;;;;;5010079;28;20042;-74
2022/08/20 04:58:20;;;;;;;7.57;3.13;;;16.30;82.30;;;;;;5010048;28;20038;-75
2022/08/20 05:00:54;;;;;;;9.45;3.70;;;16.30;82.30;;;;;;4993733;28;20042;-73
2022/08/20 05:03:20;;;;;;;7.63;3.23;;;16.20;82.30;;;;;;5009847;28;20038;-75
2022/08/20 05:05:46;;;;;;;11.38;3.33;;;16.30;82.20;;;;;;5009725;28;20103;-74
2022/08/20 05:08:14;;;;;;;10.88;3.33;;;16.20;82.20;;;;;;5009736;28;20052;-73
2022/08/20 05:10:41;;;;;;;7.80;3.13;;;16.20;82.20;;;;;;5009708;28;20053;-74
2022/08/20 05:13:08;;;;;;;8.43;3.25;;;16.20;82.20;;;;;;5009647;28;20042;-74
2022/08/20 05:15:35;;;;;;;6.72;3.00;;;16.20;82.20;;;;;;5009714;28;20095;-74
2022/08/20 05:18:06;;;;;;;10.68;3.10;;;16.20;82.20;;;;;;5009567;28;20044;-75
2022/08/20 05:20:38;;;;;;;8.32;3.63;;;16.20;82.30;;;;;;5009910;28;20394;-76
2022/08/20 05:23:05;;;;;;;8.60;3.20;;;16.30;82.20;;;;;;5009665;28;20190;-75
2022/08/20 05:25:31;;;;;;;10.73;3.20;;;16.30;82.20;;;;;;5009945;28;20369;-75
2022/08/20 05:27:59;;;;;;;7.75;2.85;;;16.30;82.30;;;;;;4991639;28;20042;-75
2022/08/20 05:30:32;;;;;;;5.07;2.90;;;16.30;82.20;;;;;;5006351;28;20054;-75
2022/08/20 05:32:59;;;;;;;12.93;3.83;;;16.30;82.20;;;;;;4988051;28;20046;-74
2022/08/20 05:35:26;;;;;;;7.28;3.38;;;16.30;82.10;;;;;;5007365;28;20040;-75
2022/08/20 05:37:52;;;;;;;7.03;2.75;;;16.40;82.20;;;;;;5006908;28;20077;-76
2022/08/20 05:40:20;;;;;;;9.05;3.25;;;16.40;82.10;;;;;;4991019;28;20078;-75
2022/08/20 05:42:46;;;;;;;6.68;3.10;;;16.40;82.00;;;;;;5007337;28;20398;-75
2022/08/20 05:45:12;;;;;;;7.88;3.20;;;16.50;82.00;;;;;;4992599;28;20042;-75
2022/08/20 05:47:39;;;;;;;8.90;3.80;;;16.50;81.80;;;;;;4992568;28;20129;-75
2022/08/20 05:50:07;;;;;;;8.43;3.00;;;16.60;81.70;;;;;;5008670;28;20122;-75
2022/08/20 05:52:32;;;;;;;8.45;3.53;;;16.60;81.70;;;;;;5008735;28;20447;-76
2022/08/20 05:54:58;;;;;;;10.20;3.22;;;16.70;81.70;;;;;;4992684;28;20064;-75
2022/08/20 05:57:24;;;;;;;6.25;2.90;;;16.70;81.50;;;;;;4992371;28;20478;-75
2022/08/20 05:59:49;;;;;;;7.18;2.75;;;16.70;81.30;;;;;;5008767;28;20039;-74
2022/08/20 06:05:00;;;;;;;7.95;2.83;;;16.90;81.00;;;;;;5008753;28;20128;-75
2022/08/20 06:07:25;;;;;;;7.10;3.22;;;16.90;80.80;;;;;;4992533;28;20133;-76
2022/08/20 06:09:51;;;;;;;9.00;2.50;;;16.90;80.70;;;;;;4992406;28;20058;-76
2022/08/20 06:12:17;;;;;;;7.95;2.90;;;16.90;80.60;;;;;;5008574;28;20046;-75
2022/08/20 06:14:43;;;;;;;7.57;2.55;;;16.90;80.40;;;;;;4992265;28;20040;-75
2022/08/20 06:17:12;;;;;;;7.78;3.15;;;16.90;80.20;;;;;;5010712;28;20478;-75
2022/08/20 06:19:38;;;;;;;7.70;2.47;;;16.90;80.20;;;;;;5011799;28;20508;-75
2022/08/20 06:22:05;;;;;;;9.75;3.40;;;17.00;80.10;;;;;;5012099;28;20386;-76
2022/08/20 06:24:32;;;;;;;11.10;2.67;;;17.00;79.90;;;;;;5012064;28;20088;-75
2022/08/20 06:26:59;;;;;;;9.70;3.42;;;17.10;79.80;;;;;;5011995;28;20537;-75
2022/08/20 06:29:26;;;;;;;9.52;2.10;;;17.10;79.60;;;;;;5011331;28;20072;-75
2022/08/20 06:31:52;;;;;;;8.15;3.13;;;17.10;79.50;;;;;;5011680;28;20050;-75
2022/08/20 06:34:18;;;;;;;9.38;2.97;;;17.20;79.50;;;;;;4995387;28;20038;-75
2022/08/20 06:36:45;;;;;;;10.07;2.45;;;17.20;79.50;;;;;;5011517;28;20061;-75
2022/08/20 06:39:15;;;;;;;8.52;2.50;;;17.30;79.40;;;;;;5011722;28;20065;-75
2022/08/20 06:41:41;;;;;;;7.05;2.17;;;17.40;79.30;;;;;;5011798;28;20046;-75
2022/08/20 06:44:07;;;;;;;4.80;2.22;;;17.40;78.70;;;;;;5011852;28;20118;-75
2022/08/20 06:46:34;;;;;;;6.88;2.75;;;17.50;77.70;;;;;;5011542;28;20505;-76
2022/08/20 06:49:02;;;;;;;10.35;3.20;;;17.60;77.70;;;;;;4994943;28;20083;-75
2022/08/20 06:51:28;;;;;;;6.18;2.38;;;17.70;77.60;;;;;;5011470;28;20125;-76
2022/08/20 06:53:54;;;;;;;4.80;2.00;;;17.80;77.10;;;;;;5044742;28;20056;-75
2022/08/20 06:56:20;;;;;;;8.05;2.88;;;17.90;76.60;;;;;;4995494;28;20081;-75
2022/08/20 06:58:46;;;;;;;7.22;3.03;;;18.00;76.20;;;;;;4995361;28;20497;-74
2022/08/20 07:01:12;;;;;;;9.07;2.13;;;18.10;75.80;;;;;;5012538;28;20038;-76
2022/08/20 07:03:42;;;;;;;8.13;2.95;;;18.20;75.60;;;;;;4994783;28;20042;-75
2022/08/20 07:06:07;;;;;;;6.63;2.35;;;18.30;75.20;;;;;;5011125;28;20037;-75
2022/08/20 07:08:34;;;;;;;6.60;2.70;;;18.40;75.20;;;;;;4994852;28;20087;-75
2022/08/20 07:11:00;;;;;;;7.40;2.30;;;18.50;75.30;;;;;;5011088;28;20038;-75
2022/08/20 07:13:27;;;;;;;7.38;2.60;;;18.60;75.50;;;;;;5011030;28;20042;-76
2022/08/20 07:15:54;;;;;;;7.20;2.15;;;18.70;75.20;;;;;;5010971;28;20099;-75
2022/08/20 07:18:21;;;;;;;6.30;2.13;;;18.80;75.10;;;;;;4994567;28;20049;-76
2022/08/20 07:20:47;;;;;;;8.23;2.80;;;19.00;74.70;;;;;;4994789;28;20520;-76
2022/08/20 07:23:13;;;;;;;7.07;2.05;;;19.10;72.70;;;;;;5010854;28;20128;-75
2022/08/20 07:25:41;;;;;;;8.23;1.95;;;19.20;72.30;;;;;;5010821;28;20204;-76
2022/08/20 07:28:13;;;;;;;5.45;1.63;;;19.30;71.70;;;;;;5010579;28;20049;-75
2022/08/20 07:33:24;;;;;;;11.13;2.38;;;19.50;70.90;;;;;;5011034;28;20049;-78
2022/08/20 07:35:50;;;;;;;7.18;1.55;;;19.60;70.70;;;;;;5011500;28;20125;-78
2022/08/20 07:38:28;;;;;;;5.57;2.08;;;19.70;70.10;;;;;;5011712;28;20074;-77
2022/08/20 07:40:57;;;;;;;5.68;1.85;;;19.90;69.80;;;;;;4995637;28;20053;-78
2022/08/20 07:43:24;;;;;;;8.85;1.67;;;19.90;69.80;;;;;;5011157;28;20077;-79
2022/08/20 07:45:56;;;;;;;7.57;1.83;;;20.00;69.00;;;;;;5011852;28;20050;-78
2022/08/20 07:48:27;;;;;;;7.25;2.03;;;20.00;68.70;;;;;;4995393;28;20101;-77
2022/08/20 07:50:58;;;;;;;7.15;1.77;;;20.10;68.00;;;;;;5011487;28;20042;-77
2022/08/20 07:53:25;;;;;;;9.05;1.98;;;20.20;67.50;;;;;;5011545;28;20102;-77
2022/08/20 07:55:51;;;;;;;8.57;1.90;;;20.20;67.60;;;;;;4979251;28;20050;-77
2022/08/20 07:58:20;;;;;;;12.75;2.35;;;20.30;67.90;;;;;;5011733;28;20042;-78
2022/08/20 08:00:46;;;;;;;5.82;1.50;;;20.40;67.30;;;;;;5011849;28;20440;-77
2022/08/20 08:03:12;;;;;;;7.90;1.85;;;20.50;66.90;;;;;;5010499;28;20486;-77
2022/08/20 08:05:42;;;;;;;8.70;2.03;;;20.50;66.70;;;;;;5010571;28;20049;-78
2022/08/20 08:08:10;;;;;;;9.65;2.00;;;20.60;66.40;;;;;;4994511;28;20044;-78
2022/08/20 08:10:37;;;;;;;7.43;2.42;;;20.70;65.90;;;;;;5011047;28;20050;-78
2022/08/20 08:13:06;;;;;;;7.75;1.85;;;20.70;65.80;;;;;;5011247;28;20122;-78
2022/08/20 08:15:33;;;;;;;6.13;2.20;;;20.70;65.50;;;;;;4994076;28;20045;-78
2022/08/20 08:18:12;;;;;;;7.97;2.45;;;20.80;65.40;;;;;;4994080;28;20050;-79
2022/08/20 08:20:41;;;;;;;9.45;3.10;;;20.90;65.10;;;;;;5010294;28;20050;-80
2022/08/20 08:23:10;;;;;;;8.77;2.72;;;20.90;64.70;;;;;;5010300;28;20444;-78
2022/08/20 08:25:38;;;;;;;7.05;1.90;;;21.00;64.80;;;;;;5010158;28;20448;-80
2022/08/20 08:28:04;;;;;;;8.68;1.80;;;21.10;64.60;;;;;;5009963;28;20042;-78
2022/08/20 08:30:30;;;;;;;6.60;2.13;;;21.20;64.30;;;;;;4993397;28;20133;-79
2022/08/20 08:35:43;;;;;;;;;;;21.40;63.70;;;;;;5068778;28;20103;-79
2022/08/20 08:38:09;;;;;;;9.00;2.13;;;21.40;63.10;;;;;;5009834;28;20298;-78
2022/08/20 08:40:34;;;;;;;8.35;2.40;;;21.40;63.70;;;;;;4993087;28;20129;-78
2022/08/20 08:43:04;;;;;;;10.20;2.40;;;21.50;63.40;;;;;;4977505;28;20103;-79
2022/08/20 08:46:04;;;;;;;8.70;3.08;;;21.60;63.90;;;;;;5009776;28;20512;-78
2022/08/20 08:48:44;;;;;;;7.93;1.98;;;21.70;63.10;;;;;;5032902;28;20034;-79
2022/08/20 08:51:16;;;;;;;6.00;2.47;;;21.80;62.80;;;;;;5007960;28;20045;-79
2022/08/20 08:53:49;;;;;;;6.15;1.80;;;21.90;61.70;;;;;;5007088;28;20025;-77
2022/08/20 08:56:15;;;;;;;7.85;2.13;;;21.90;62.10;;;;;;5009416;28;20042;-78
2022/08/20 08:58:43;;;;;;;6.60;1.92;;;22.00;61.90;;;;;;4993395;28;20053;-78
2022/08/20 09:01:15;;;;;;;7.80;1.90;;;22.10;61.90;;;;;;4977409;28;20485;-78
2022/08/20 09:03:46;;;;;;;8.25;2.45;;;22.20;61.10;;;;;;4993049;28;20077;-78
2022/08/20 09:06:17;;;;;;;10.32;2.22;;;22.20;61.40;;;;;;5009713;28;20508;-78
2022/08/20 09:08:46;;;;;;;6.20;1.88;;;22.30;61.10;;;;;;5009215;28;20084;-78
2022/08/20 09:11:13;;;;;;;7.05;2.10;;;22.30;60.60;;;;;;5009207;28;20046;-78
2022/08/20 09:13:39;;;;;;;8.63;2.28;;;22.40;60.10;;;;;;5009253;28;20049;-77
2022/08/20 09:16:05;;;;;;;10.25;2.28;;;22.40;59.90;;;;;;4993226;28;20046;-78
2022/08/20 09:18:31;;;;;;;9.70;1.98;;;22.50;59.10;;;;;;4993246;28;20046;-78
2022/08/20 09:20:56;;;;;;;8.15;1.40;;;22.60;59.40;;;;;;4976715;28;20042;-80
2022/08/20 09:23:22;;;;;;;5.38;1.35;;;22.60;57.10;;;;;;4992872;28;20512;-79
2022/08/20 09:25:49;;;;;;;10.15;2.10;;;22.50;56.20;;;;;;5008986;28;20103;-78
2022/08/20 09:28:15;;;;;;;7.80;2.17;;;22.40;56.40;;;;;;4992618;28;20504;-76
2022/08/20 09:30:41;;;;;;;11.23;2.28;;;22.40;56.40;;;;;;4976341;28;20050;-77
2022/08/20 09:33:07;;;;;;;6.35;1.67;;;22.30;56.20;;;;;;5009048;28;20041;-75
2022/08/20 09:35:33;;;;;;;6.22;2.10;;;22.40;56.50;;;;;;5008692;28;20040;-76
2022/08/20 09:37:59;;;;;;;8.07;2.22;;;22.50;56.50;;;;;;4974183;28;20042;-78
2022/08/20 09:40:25;;;;;;;5.05;1.67;;;22.70;54.90;;;;;;4987248;28;20042;-79
2022/08/20 09:42:52;;;;;;;7.00;2.40;;;22.80;54.70;;;;;;5003183;28;20053;-77
2022/08/20 09:45:19;;;;;;;8.73;2.20;;;22.90;52.20;;;;;;4986870;28;20060;-77
2022/08/20 09:47:44;;;;;;;8.27;2.53;;;22.70;54.20;;;;;;5001525;28;20512;-78
2022/08/20 09:50:10;;;;;;;5.97;2.45;;;22.70;55.00;;;;;;5002852;28;20054;-77
2022/08/20 09:52:47;;;;;;;6.80;1.85;;;22.70;55.20;;;;;;4989792;28;20045;-77
2022/08/20 09:55:36;;;;;;;10.23;2.90;;;22.80;53.50;;;;;;5006553;28;20440;-78
2022/08/20 09:58:07;;;;;;;5.93;1.98;;;23.00;53.50;;;;;;4989120;28;20050;-78
2022/08/20 10:00:33;;;;;;;9.00;1.77;;;23.10;54.20;;;;;;5006171;28;20424;-79
2022/08/20 10:03:00;;;;;;;7.28;1.50;;;23.40;53.70;;;;;;4988076;28;20037;-75
2022/08/20 10:05:26;;;;;;;7.28;1.73;;;23.40;52.50;;;;;;5006569;28;20179;-75
2022/08/20 10:07:51;;;;;;;10.10;2.45;;;23.40;52.50;;;;;;5012237;28;20050;-75
2022/08/20 10:10:17;;;;;;;8.38;1.85;;;23.40;53.50;;;;;;5011954;28;20551;-75
2022/08/20 10:12:45;;;;;;;6.97;1.58;;;23.40;52.60;;;;;;5012156;28;20080;-74
2022/08/20 10:15:11;;;;;;;5.43;1.50;;;23.40;53.20;;;;;;5011923;28;20048;-74
2022/08/20 10:17:39;;;;;;;8.82;1.77;;;23.50;52.80;;;;;;5011736;28;20041;-74
2022/08/20 10:20:06;;;;;;;6.55;1.70;;;23.60;52.10;;;;;;5011862;28;20046;-74
2022/08/20 10:22:32;;;;;;;8.07;2.45;;;23.70;51.90;;;;;;4995514;28;20081;-75
2022/08/20 10:24:57;;;;;;;5.25;1.90;;;23.90;52.50;;;;;;5011974;28;20081;-75
2022/08/20 10:27:23;;;;;;;6.57;1.67;;;24.00;51.90;;;;;;4979370;28;20500;-75
2022/08/20 10:29:49;;;;;;;8.27;1.92;;;24.00;50.90;;;;;;4978933;28;20544;-74
2022/08/20 10:32:16;;;;;;;7.50;1.77;;;24.10;50.30;;;;;;4995557;28;20127;-74
2022/08/20 10:34:44;;;;;;;5.68;1.90;;;24.00;50.00;;;;;;5011599;28;20050;-74
2022/08/20 10:37:18;;;;;;;7.10;2.03;;;23.90;50.80;;;;;;5011656;28;20046;-74
2022/08/20 10:39:44;;;;;;;3.83;1.55;;;23.80;50.60;;;;;;5011597;28;20604;-75
2022/08/20 10:42:10;;;;;;;6.05;1.58;;;23.90;50.80;;;;;;5011729;28;20050;-74
2022/08/20 10:44:36;;;;;;;7.63;1.85;;;23.70;49.90;;;;;;5011423;28;20513;-74
2022/08/20 10:47:31;;;;;;;5.93;2.15;;;23.50;51.80;;;;;;5011446;28;20050;-74
2022/08/20 10:50:00;;;;;;;5.80;2.42;;;23.40;52.60;;;;;;4995076;28;20074;-74
2022/08/20 10:52:28;;;;;;;6.53;2.13;;;23.20;53.70;;;;;;5011329;28;20084;-74
2022/08/20 10:54:54;;;;;;;7.80;2.00;;;23.10;53.80;;;;;;5011310;28;20038;-74
2022/08/20 10:57:23;;;;;;;9.52;2.72;;;22.90;54.10;;;;;;5011183;28;20042;-75
2022/08/20 10:59:50;;;;;;;8.15;2.20;;;23.00;54.60;;;;;;4995222;28;20046;-76
2022/08/20 11:02:17;;;;;;;10.32;2.53;;;23.10;54.10;;;;;;4994753;28;20061;-76
2022/08/20 11:04:44;;;;;;;7.55;2.22;;;23.00;54.30;;;;;;5011192;28;20129;-75
2022/08/20 11:07:24;;;;;;;8.35;1.90;;;22.90;54.80;;;;;;5011001;28;20049;-75
2022/08/20 11:09:50;;;;;;;4.97;1.90;;;23.20;53.00;;;;;;5010377;28;20042;-75
2022/08/20 11:12:17;;;;;;;5.18;1.70;;;23.50;51.50;;;;;;4994577;28;20114;-75
2022/08/20 11:14:44;;;;;;;9.07;2.22;;;23.80;50.80;;;;;;5010630;28;20138;-74
2022/08/20 11:17:10;;;;;;;6.13;1.98;;;24.10;49.60;;;;;;5011149;28;20128;-74
2022/08/20 11:19:41;;;;;;;6.13;2.05;;;24.40;48.20;;;;;;5010982;28;20163;-75
2022/08/20 11:22:08;;;;;;;7.40;1.83;;;24.60;47.20;;;;;;5080082;28;20071;-75
2022/08/20 11:24:34;;;;;;;9.20;2.33;;;24.70;47.50;;;;;;5011132;28;20049;-76
2022/08/20 11:27:01;;;;;;;8.43;2.22;;;24.90;47.80;;;;;;4994933;28;20105;-77
2022/08/20 11:29:26;;;;;;;7.93;2.78;;;24.90;47.40;;;;;;4994419;28;20383;-78
2022/08/20 11:31:52;;;;;;;6.93;2.03;;;24.90;47.40;;;;;;4994572;28;20049;-78
2022/08/20 11:34:18;;;;;;;4.47;1.55;;;24.70;47.30;;;;;;5010786;28;20054;-77
2022/08/20 11:36:45;;;;;;;6.25;2.03;;;24.40;47.20;;;;;;5010693;28;20081;-78
2022/08/20 11:39:11;;;;;;;6.97;2.22;;;24.30;48.80;;;;;;5011078;28;20073;-78
2022/08/20 11:41:36;;;;;;;8.25;2.97;;;24.30;49.10;;;;;;5010639;28;20548;-77
2022/08/20 11:44:02;;;;;;;6.05;2.20;;;24.50;47.90;;;;;;4994352;28;20060;-78
2022/08/20 11:46:28;;;;;;;5.38;1.90;;;24.80;46.90;;;;;;5010439;28;20048;-77
2022/08/20 11:48:54;;;;;;;7.68;2.17;;;24.90;45.90;;;;;;4994249;28;20100;-78
2022/08/20 11:51:19;;;;;;;7.15;2.40;;;25.00;45.50;;;;;;5010481;28;20037;-77
2022/08/20 11:53:45;;;;;;;8.40;2.33;;;25.10;45.60;;;;;;4994487;28;20474;-78
2022/08/20 11:56:12;;;;;;;5.05;1.75;;;24.90;45.70;;;;;;4994150;28;20378;-77
2022/08/20 11:58:38;;;;;;;7.68;2.30;;;24.80;45.20;;;;;;5010381;28;20098;-77
2022/08/20 12:01:03;;;;;;;9.60;2.22;;;24.90;45.40;;;;;;4994069;28;20046;-78
2022/08/20 12:03:29;;;;;;;6.93;2.05;;;25.00;43.70;;;;;;4994324;28;20145;-78
2022/08/20 12:05:56;;;;;;;5.57;2.10;;;25.10;44.40;;;;;;5010510;28;20042;-78
2022/08/20 12:08:22;;;;;;;6.13;1.90;;;24.90;44.70;;;;;;5010138;28;20490;-78
2022/08/20 12:10:48;;;;;;;6.88;2.28;;;24.90;45.20;;;;;;5010251;28;20038;-77
2022/08/20 12:13:13;;;;;;;4.95;1.70;;;24.90;45.00;;;;;;5009675;28;20498;-78
2022/08/20 12:15:39;;;;;;;7.25;2.20;;;24.80;45.30;;;;;;5009771;28;20042;-75
2022/08/20 12:18:09;;;;;;;7.13;2.05;;;24.70;46.10;;;;;;5009992;28;20042;-74
2022/08/20 12:20:36;;;;;;;4.55;1.80;;;24.50;46.30;;;;;;4993669;28;20046;-75
2022/08/20 12:23:02;;;;;;;6.15;1.55;;;24.30;46.70;;;;;;5010319;28;20425;-75
2022/08/20 12:25:28;;;;;;;6.13;1.85;;;24.20;45.80;;;;;;5010318;28;20049;-75
2022/08/20 12:27:54;;;;;;;4.45;1.70;;;23.80;45.50;;;;;;5010206;28;20067;-75
2022/08/20 12:30:22;;;;;;;8.57;2.33;;;23.90;46.20;;;;;;5009695;28;20181;-75
2022/08/20 12:32:48;;;;;;;7.32;2.50;;;23.90;47.00;;;;;;5009881;28;20053;-75
2022/08/20 12:35:16;;;;;;;7.18;2.30;;;24.20;46.80;;;;;;5009758;28;20041;-76
2022/08/20 12:37:42;;;;;;;6.00;1.50;;;24.40;45.40;;;;;;5009731;28;20037;-76
2022/08/20 12:40:12;;;;;;;6.63;2.15;;;24.40;45.70;;;;;;4993599;28;20095;-75
2022/08/20 12:42:38;;;;;;;8.48;1.80;;;24.30;45.30;;;;;;5009014;28;20034;-75
2022/08/20 12:45:05;;;;;;;6.45;1.80;;;24.20;44.70;;;;;;5008831;28;20121;-75
2022/08/20 12:47:39;;;;;;;5.25;2.30;;;24.20;45.30;;;;;;5008648;28;20608;-73
2022/08/20 12:50:09;;;;;;;5.15;1.52;;;24.30;45.80;;;;;;5009400;28;20402;-74
2022/08/20 12:52:35;;;;;;;5.85;1.70;;;24.40;45.60;;;;;;5009557;28;20121;-75
2022/08/20 12:55:01;;;;;;;5.50;1.80;;;24.70;44.90;;;;;;5009712;28;20152;-74
2022/08/20 12:57:28;;;;;;;4.38;1.52;;;24.90;43.80;;;;;;4993003;28;20102;-74
2022/08/20 12:59:59;;;;;;;5.07;2.10;;;24.90;42.70;;;;;;4991670;28;20103;-75
2022/08/20 13:02:26;;;;;;;4.22;1.60;;;24.80;43.60;;;;;;5007628;28;20046;-75